Latest Weather Observations for Ngukurr AWS

IDD60801

Issued at 7:01 pm CST Tuesday 21 April 2015 (issued every 30 minutes, with the page automatically refreshed every 10 minutes)

About weather observations | Map of weather stations | Latest weather observations for NT | Other Formats
Station Details ID: 014299 Name: NGUKURR AIRPORT Lat: -14.72 Lon: 134.75 Height: 14.46 m
Data from the previous 72 hours. | See also: Recent months at Ngukurr AWS
Date/Time
CST
Temp
°C
App
Temp
°C
Dew
Point
Rel
Hum
%
Delta-T
°C
Wind Press
QNH
hPa
Press
MSL
hPa
Rain
since 9 am
mm
Dir
 
Spd
km/h
Gust
km/h
Spd
kts
Gust
kts
21/07:00pm 27.9 27.0 12.7 39 8.9 E 9 13 5 7 1012.6 1012.5 0.0
21/06:30pm 28.6 27.8 12.9 38 9.2 E 9 13 5 7 1012.3 1012.2 0.0
21/06:00pm 29.8 29.3 12.7 35 10.1 ENE 7 13 4 7 1012.0 1011.9 0.0
21/05:30pm 30.9 28.8 11.3 30 11.4 E 13 17 7 9 1011.8 1011.7 0.0
21/05:00pm 31.3 29.2 11.1 29 11.7 ENE 13 20 7 11 1011.7 1011.6 0.0
21/04:30pm 31.8 29.7 11.0 28 12.1 ENE 13 20 7 11 1011.5 1011.4 0.0
21/04:00pm 33.2 31.3 10.5 25 13.1 ENE 11 22 6 12 1011.3 1011.2 0.0
21/03:30pm 33.0 30.5 9.7 24 13.3 SE 13 20 7 11 1011.3 1011.2 0.0
21/03:00pm 33.4 30.4 10.7 25 13.2 E 17 26 9 14 1011.3 1011.2 0.0
21/02:30pm 32.8 30.7 9.6 24 13.2 SE 11 20 6 11 1011.6 1011.5 0.0
21/02:00pm 32.7 29.8 9.5 24 13.2 SE 15 26 8 14 1012.2 1012.1 0.0
21/01:30pm 32.1 29.0 9.0 24 13.0 ESE 15 26 8 14 1012.6 1012.5 0.0
21/01:00pm 31.8 29.2 9.3 25 12.7 ESE 13 22 7 12 1013.1 1013.0 0.0
21/12:30pm 30.7 27.5 8.4 25 12.3 SE 15 24 8 13 1013.6 1013.5 0.0
21/12:00pm 30.7 26.7 8.4 25 12.3 ESE 19 28 10 15 1014.1 1014.0 0.0
21/11:30am 30.4 26.5 8.7 26 12.0 ESE 19 30 10 16 1014.5 1014.4 0.0
21/11:00am 29.5 25.4 8.0 26 11.7 SE 19 30 10 16 1015.1 1015.0 0.0
21/10:30am 29.2 25.4 7.7 26 11.6 SE 17 26 9 14 1015.5 1015.4 0.0
21/10:00am 27.7 23.7 6.5 26 11.2 ESE 17 28 9 15 1015.8 1015.7 0.0
21/09:30am 26.8 23.1 6.2 27 10.7 SSE 15 28 8 15 1016.0 1015.9 0.0
21/09:00am 26.4 22.7 6.4 28 10.4 SSE 15 28 8 15 1015.6 1015.5 0.0
21/08:30am 25.2 21.4 5.9 29 9.9 SSE 15 28 8 15 1015.1 1015.0 0.0
21/08:00am 24.6 21.6 5.9 30 9.6 SSE 11 19 6 10 1015.0 1014.9 0.0
21/07:30am 23.7 21.1 6.0 32 9.0 SSE 9 15 5 8 1014.6 1014.5 0.0
21/07:00am 23.1 20.9 6.0 33 8.7 SSE 7 11 4 6 1014.4 1014.3 0.0
21/06:30am 23.1 20.9 6.0 33 8.7 SSE 7 13 4 7 1014.0 1013.9 0.0
21/06:00am 23.6 21.0 6.0 32 9.0 SSE 9 17 5 9 1013.8 1013.7 0.0
21/05:30am 24.2 21.3 6.5 32 9.1 SSE 11 19 6 10 1013.6 1013.5 0.0
21/05:00am 24.6 21.7 6.4 31 9.4 SSE 11 19 6 10 1013.3 1013.2 0.0
21/04:30am 25.4 22.3 7.1 31 9.6 S 13 26 7 14 1013.3 1013.2 0.0
21/04:00am 25.7 22.8 8.2 33 9.4 SSE 13 22 7 12 1013.0 1012.9 0.0
21/03:30am 26.5 23.5 9.4 34 9.4 SSE 15 26 8 14 1013.0 1012.9 0.0
21/03:00am 26.9 24.6 10.6 36 9.2 S 13 20 7 11 1012.9 1012.8 0.0
21/02:30am 26.5 25.6 13.6 45 7.6 S 11 17 6 9 1012.6 1012.5 0.0
21/02:00am 25.5 28.2 19.4 69 3.9 S 4 7 2 4 1012.5 1012.4 0.0
21/01:30am 26.0 29.1 19.4 67 4.3 S 2 4 1 2 1012.6 1012.5 0.0
21/01:00am 26.0 28.7 19.4 67 4.3 SW 4 6 2 3 1013.1 1013.0 0.0
21/12:30am 26.0 28.7 19.4 67 4.3 SW 4 7 2 4 1013.4 1013.3 0.0
21/12:00am 25.9 29.3 19.3 67 4.2 CALM 0 0 0 0 1013.3 1013.2 0.0
 
Date/Time
CST
Temp
°C
App
Temp
°C
Dew
Point
Rel
Hum
%
Delta-T
°C
Wind Press
QNH
hPa
Press
MSL
hPa
Rain
since 9 am
mm
Dir
 
Spd
km/h
Gust
km/h
Spd
kts
Gust
kts
20/11:30pm 25.5 28.7 18.9 67 4.2 CALM 0 0 0 0 1013.3 1013.2 0.0
20/11:00pm 24.8 27.9 18.7 69 3.9 CALM 0 0 0 0 1013.3 1013.2 0.0
20/10:30pm 24.3 27.1 18.0 68 4.0 CALM 0 0 0 0 1013.2 1013.1 0.0
20/10:00pm 24.6 26.9 17.8 66 4.3 S 2 2 1 1 1013.1 1013.0 0.0
20/09:30pm 25.2 27.0 17.4 62 4.9 S 4 4 2 2 1013.1 1013.0 0.0
20/09:00pm 25.7 27.0 17.1 59 5.3 S 6 6 3 3 1013.2 1013.1 0.0
20/08:30pm 26.9 28.6 17.1 55 6.1 E 4 6 2 3 1013.0 1012.9 0.0
20/08:00pm 27.4 28.7 17.0 53 6.5 ENE 6 7 3 4 1012.7 1012.6 0.0
20/07:30pm 28.0 29.1 16.6 50 7.1 ENE 6 9 3 5 1012.3 1012.2 0.0
20/07:00pm 28.5 28.9 16.4 48 7.5 ENE 9 15 5 8 1011.9 1011.8 0.0
20/06:30pm 29.1 29.0 16.0 45 8.1 ENE 11 15 6 8 1011.8 1011.7 0.0
20/06:00pm 30.0 29.0 15.7 42 8.8 ENE 15 24 8 13 1011.4 1011.3 0.0
20/05:30pm 30.5 29.4 15.4 40 9.3 ENE 15 22 8 12 1011.4 1011.3 0.0
20/05:00pm 32.0 29.9 15.1 36 10.4 ENE 20 32 11 17 1010.9 1010.8 0.0
20/04:30pm 33.4 31.6 14.5 32 11.6 E 17 26 9 14 1010.5 1010.4 0.0
20/04:00pm 34.3 32.6 13.7 29 12.6 ESE 15 22 8 12 1010.5 1010.4 0.0
20/03:30pm 34.4 32.4 13.8 29 12.6 E 17 28 9 15 1010.6 1010.5 0.0
20/03:00pm 34.6 32.8 13.4 28 12.9 ESE 15 22 8 12 1010.9 1010.8 0.0
20/02:30pm 34.0 32.4 12.9 28 12.7 E 13 22 7 12 1011.4 1011.3 0.0
20/02:00pm 33.6 31.7 13.1 29 12.4 SE 15 26 8 14 1011.7 1011.6 0.0
20/01:30pm 33.1 30.3 12.7 29 12.2 SE 19 32 10 17 1012.4 1012.3 0.0
20/01:00pm 32.6 30.5 12.3 29 12.0 SE 15 22 8 12 1012.8 1012.7 0.0
20/12:30pm 32.6 30.1 12.3 29 12.0 ESE 17 24 9 13 1013.6 1013.5 0.0
20/12:00pm 31.1 27.8 11.5 30 11.4 E 20 32 11 17 1014.3 1014.2 0.0
20/11:30am 30.5 27.4 11.5 31 11.0 SE 19 32 10 17 1015.0 1014.9 0.0
20/11:00am 30.2 27.5 11.7 32 10.8 SE 17 32 9 17 1015.3 1015.2 0.0
20/10:30am 29.6 26.9 11.6 33 10.4 SE 17 26 9 14 1015.6 1015.5 0.0
20/10:00am 28.2 24.9 10.9 34 9.8 SE 19 30 10 16 1015.8 1015.7 0.0
20/09:30am 27.4 24.5 11.0 36 9.3 SSE 17 26 9 14 1015.8 1015.7 0.0
20/09:00am 26.5 23.6 11.0 38 8.8 SSE 17 32 9 17 1015.7 1015.6 0.0
20/08:30am 25.0 22.0 10.8 41 7.9 SSE 17 30 9 16 1015.7 1015.6 0.0
20/08:00am 24.3 21.4 10.9 43 7.5 SSE 17 28 9 15 1015.7 1015.6 0.0
20/07:30am 23.8 22.1 11.2 45 7.0 SSE 11 20 6 11 1015.6 1015.5 0.0
20/07:00am 23.3 21.2 11.0 46 6.8 SSE 13 20 7 11 1015.1 1015.0 0.0
20/06:30am 23.4 21.7 11.1 46 6.9 SSE 11 30 6 16 1014.6 1014.5 0.0
20/06:00am 23.8 21.7 11.2 45 7.0 SSE 13 20 7 11 1014.3 1014.2 0.0
20/05:30am 24.4 21.6 11.4 44 7.3 SSE 17 28 9 15 1013.9 1013.8 0.0
20/05:00am 24.8 23.2 12.7 47 7.0 S 13 24 7 13 1013.6 1013.5 0.0
20/04:30am 25.5 23.1 12.7 45 7.4 SSE 17 30 9 16 1013.3 1013.2 0.0
20/04:00am 25.9 24.0 13.1 45 7.5 SSE 15 28 8 15 1013.1 1013.0 0.0
20/03:30am 26.6 24.8 13.3 43 7.8 SSE 15 26 8 14 1013.1 1013.0 0.0
20/03:00am 27.3 26.2 15.3 48 7.3 SSE 15 28 8 15 1013.1 1013.0 0.0
20/02:30am 26.9 30.1 22.3 76 3.1 S 9 19 5 10 1012.9 1012.8 0.0
20/02:00am 26.6 30.4 24.1 86 1.7 S 11 19 6 10 1013.2 1013.1 0.0
20/01:30am 24.9 29.8 23.7 93 0.8 S 4 4 2 2 1012.9 1012.8 0.0
20/01:00am 25.0 29.9 23.1 89 1.3 SSE 2 2 1 1 1013.1 1013.0 0.0
20/12:30am 25.3 30.2 23.0 87 1.6 SSE 2 4 1 2 1013.2 1013.1 0.0
20/12:00am 25.6 30.1 22.9 85 1.8 SSE 4 4 2 2 1013.4 1013.3 0.0
 
Date/Time
CST
Temp
°C
App
Temp
°C
Dew
Point
Rel
Hum
%
Delta-T
°C
Wind Press
QNH
hPa
Press
MSL
hPa
Rain
since 9 am
mm
Dir
 
Spd
km/h
Gust
km/h
Spd
kts
Gust
kts
19/11:30pm 26.3 30.9 23.2 83 2.1 SSE 4 6 2 3 1013.2 1013.1 0.0
19/11:00pm 27.1 31.8 23.3 80 2.6 ESE 4 7 2 4 1013.1 1013.0 0.0
19/10:30pm 27.6 31.8 23.4 78 2.9 E 7 11 4 6 1013.3 1013.2 0.0
19/10:00pm 27.8 31.9 23.2 76 3.1 E 7 11 4 6 1013.5 1013.4 0.0
19/09:30pm 27.9 31.9 23.1 75 3.3 E 7 9 4 5 1013.4 1013.3 0.0
19/09:00pm 28.0 31.5 22.9 74 3.5 E 9 13 5 7 1013.3 1013.2 0.0
19/08:30pm 28.3 31.4 22.8 72 3.7 ENE 11 15 6 8 1013.2 1013.1 0.0
19/08:00pm 28.7 30.8 22.4 68 4.3 E 15 22 8 12 1013.0 1012.9 0.0
19/07:30pm 29.0 31.3 22.0 66 4.7 E 13 19 7 10 1012.5 1012.4 0.0
19/07:00pm 29.3 31.6 21.3 62 5.3 E 11 20 6 11 1012.2 1012.1 0.0
19/06:30pm 30.0 30.2 20.5 56 6.3 E 20 32 11 17 1012.0 1011.9 0.0
19/06:00pm 31.0 30.8 19.7 51 7.4 ENE 20 30 11 16 1011.9 1011.8 0.0
19/05:30pm 32.0 30.9 18.6 45 8.7 ENE 22 33 12 18 1011.5 1011.4 0.0
19/05:00pm 33.2 32.6 18.9 42 9.4 ENE 20 30 11 16 1011.1 1011.0 0.0
19/04:30pm 34.0 33.4 18.9 41 9.9 E 20 30 11 16 1010.9 1010.8 0.0
19/04:00pm 34.4 34.0 18.0 37 10.6 E 17 26 9 14 1010.7 1010.6 0.0
19/03:30pm 34.5 32.8 17.3 36 11.1 E 22 35 12 19 1010.6 1010.5 0.0
19/03:00pm 35.4 34.6 17.1 33 11.8 E 17 30 9 16 1010.8 1010.7 0.0
19/02:30pm 35.7 33.9 15.9 30 12.5 E 20 30 11 16 1011.0 1010.9 0.0
19/02:00pm 34.8 33.0 16.1 32 11.8 ESE 20 32 11 17 1011.3 1011.2 0.0
19/01:30pm 35.0 33.9 16.3 32 11.9 SE 17 24 9 13 1011.7 1011.6 0.0
19/01:00pm 34.6 33.5 16.4 33 11.5 ESE 17 28 9 15 1012.0 1011.9 0.0
19/12:30pm 34.3 33.1 17.1 36 11.0 E 19 32 10 17 1012.7 1012.6 0.0
19/12:00pm 33.4 32.0 17.1 37 10.4 ESE 20 32 11 17 1013.3 1013.2 0.0
19/11:30am 32.8 31.7 17.4 39 9.9 ESE 19 33 10 18 1013.8 1013.7 0.0
19/11:00am 32.5 32.6 17.5 40 9.6 SE 13 26 7 14 1014.0 1013.9 0.0
19/10:30am 31.9 32.5 18.5 45 8.7 SSE 13 24 7 13 1014.2 1014.1 0.0
19/10:00am 31.1 31.3 18.5 47 8.1 SSE 15 24 8 13 1014.4 1014.3 0.0
19/09:30am 30.7 31.6 18.4 47 7.9 SSE 11 20 6 11 1014.5 1014.4 0.0
19/09:00am 29.6 30.1 18.4 51 7.2 SSE 13 20 7 11 1014.3 1014.2 0.0
19/08:30am 28.3 29.6 19.2 57 5.9 S 11 19 6 10 1014.4 1014.3 0.0
19/08:00am 27.2 28.4 19.8 64 4.8 S 13 20 7 11 1014.2 1014.1 0.0
19/07:30am 25.8 29.7 22.5 82 2.2 S 6 9 3 5 1014.1 1014.0 0.0
19/07:00am 24.2 28.8 23.2 94 0.7 S 4 7 2 4 1013.8 1013.7 0.0
19/06:30am 23.4 28.3 23.1 98 0.2 SSE 2 6 1 3 1013.5 1013.4 0.0
19/06:00am 23.1 28.3 22.8 98 0.2 CALM 0 0 0 0 1013.1 1013.0 0.0
19/05:30am 23.5 28.9 23.2 98 0.2 CALM 0 0 0 0 1012.7 1012.6 0.0
19/05:00am 23.2 27.7 22.9 98 0.2 S 4 6 2 3 1012.3 1012.2 0.0
19/04:30am 22.8 26.5 22.5 98 0.2 S 7 11 4 6 1012.2 1012.1 0.0
19/04:00am 22.2 26.9 21.9 98 0.2 CALM 0 0 0 0 1011.6 1011.5 0.0
19/03:30am 22.3 26.8 21.6 96 0.5 CALM 0 0 0 0 1011.6 1011.5 0.0
19/03:00am 22.7 27.0 22.0 96 0.5 SW 2 2 1 1 1011.5 1011.4 0.0
19/02:30am 22.8 27.0 22.5 98 0.2 SSW 4 6 2 3 1011.5 1011.4 0.0
19/02:00am 22.8 27.4 21.8 94 0.7 CALM 0 0 0 0 1011.5 1011.4 0.0
19/01:30am 23.1 27.5 21.4 90 1.1 CALM 0 0 0 0 1011.9 1011.8 0.0
19/01:00am 23.4 28.0 21.8 91 1.1 CALM 0 0 0 0 1012.3 1012.2 0.0
19/12:30am 23.5 27.8 21.2 87 1.5 CALM 0 0 0 0 1012.6 1012.5 0.0
19/12:00am 23.8 28.2 21.3 86 1.6 CALM 0 0 0 0 1012.9 1012.8 0.0
 
Date/Time
CST
Temp
°C
App
Temp
°C
Dew
Point
Rel
Hum
%
Delta-T
°C
Wind Press
QNH
hPa
Press
MSL
hPa
Rain
since 9 am
mm
Dir
 
Spd
km/h
Gust
km/h
Spd
kts
Gust
kts
18/11:30pm 24.6 28.6 22.1 86 1.7 NNE 4 6 2 3 1013.0 1012.9 0.0
18/11:00pm 24.4 28.6 20.9 81 2.3 CALM 0 0 0 0 1013.1 1013.0 0.0
18/10:30pm 24.7 28.9 21.0 80 2.4 CALM 0 0 0 0 1013.1 1013.0 0.0
18/10:00pm 25.6 29.9 21.1 76 3.0 CALM 0 0 0 0 1013.1 1013.0 0.0
18/09:30pm 26.6 30.5 21.1 72 3.6 ENE 2 4 1 2 1013.1 1013.0 0.0
18/09:00pm 27.2 30.5 21.5 71 3.8 ENE 6 7 3 4 1012.8 1012.7 0.0
18/08:30pm 27.7 30.4 21.3 68 4.3 NE 9 13 5 7 1012.6 1012.5 0.0
18/08:00pm 28.2 30.3 20.2 62 5.3 ENE 9 13 5 7 1012.3 1012.2 0.0
18/07:30pm 29.1 29.9 19.1 54 6.5 E 13 17 7 9 1011.9 1011.8 0.0

Other Formats:

Comma delimited format used in spreadsheet applications
http://www.bom.gov.au/fwo/IDD60801/IDD60801.94106.axf

JavaScript Object Notation format (JSON) in row-major order
http://www.bom.gov.au/fwo/IDD60801/IDD60801.94106.json